N1993Y KORL-KHOU
Flight info
| Callsign | N1993Y |
|---|---|
| Flight time | N/A |
| Altitude | 40000 |
| Route | NYTES2 NYTES OSPRY GDUNN KNOST REMIS BLVNS BOWFN KCEEE BAYYY5 |
| Aircraft | CL60/M-SBDE1E2E3FGHIJ1J4J5J7M3RWXYZ/LB1V1D1 |
Departure
| Time | 2026-04-23 00:00 |
|---|---|
| Airport | Orlando Executive Airport (KORL) |
Arrival
| Time | N/A |
|---|---|
| Airport | William P. Hobby Airport (KHOU) |
| Time | Latitude | Longitude | Altitude | Speed | Heading |
|---|---|---|---|---|---|
| 2026-04-22 23:22 | 28.54863 | -81.33888 | 109 ft | 0 kts | 306° |
| 2026-04-22 23:56 | 28.54862 | -81.33908 | 109 ft | 8 kts | 223° |
| 2026-04-22 23:56 | 28.54838 | -81.33868 | 109 ft | 10 kts | 75° |
| 2026-04-22 23:56 | 28.54814 | -81.33785 | 109 ft | 12 kts | 143° |
| 2026-04-22 23:57 | 28.54718 | -81.33759 | 109 ft | 15 kts | 157° |
| 2026-04-22 23:57 | 28.54660 | -81.33717 | 109 ft | 6 kts | 204° |
| 2026-04-22 23:57 | 28.54606 | -81.33770 | 107 ft | 17 kts | 221° |
| 2026-04-22 23:57 | 28.54532 | -81.33816 | 106 ft | 8 kts | 132° |
| 2026-04-22 23:58 | 28.54481 | -81.33801 | 106 ft | 10 kts | 236° |
| 2026-04-22 23:58 | 28.54448 | -81.33889 | 106 ft | 13 kts | 248° |
| 2026-04-22 23:58 | 28.54436 | -81.33921 | 106 ft | 0 kts | 248° |
| 2026-04-22 23:58 | 28.54421 | -81.33959 | 106 ft | 10 kts | 237° |
| 2026-04-22 23:59 | 28.54364 | -81.33958 | 106 ft | 0 kts | 158° |
| 2026-04-22 23:59 | 28.54362 | -81.33957 | 106 ft | 4 kts | 158° |
| 2026-04-22 23:59 | 28.54297 | -81.33926 | 106 ft | 7 kts | 155° |
| 2026-04-23 00:00 | 28.54467 | -81.33440 | 108 ft | 111 kts | 67° |
| 2026-04-23 00:00 | 28.54859 | -81.32404 | 429 ft | 164 kts | 70° |
| 2026-04-23 00:00 | 28.55304 | -81.31120 | 1084 ft | 193 kts | 79° |
| 2026-04-23 00:01 | 28.54931 | -81.29598 | 1605 ft | 230 kts | 130° |
| 2026-04-23 00:01 | 28.53314 | -81.28906 | 2117 ft | 280 kts | 182° |
| 2026-04-23 00:01 | 28.51535 | -81.29658 | 3671 ft | 281 kts | 216° |
| 2026-04-23 00:01 | 28.50356 | -81.31346 | 5132 ft | 282 kts | 244° |
| 2026-04-23 00:02 | 28.49563 | -81.33383 | 6443 ft | 287 kts | 248° |
| 2026-04-23 00:02 | 28.48830 | -81.35429 | 7879 ft | 286 kts | 248° |
| 2026-04-23 00:02 | 28.48086 | -81.37505 | 9225 ft | 287 kts | 247° |
| 2026-04-23 00:02 | 28.47341 | -81.39585 | 10535 ft | 289 kts | 248° |
| 2026-04-23 00:03 | 28.46564 | -81.41763 | 11141 ft | 317 kts | 249° |
| 2026-04-23 00:03 | 28.45690 | -81.44211 | 11836 ft | 339 kts | 249° |
| 2026-04-23 00:03 | 28.44805 | -81.46696 | 12752 ft | 350 kts | 249° |
| 2026-04-23 00:03 | 28.43890 | -81.49266 | 13798 ft | 355 kts | 249° |
| 2026-04-23 00:04 | 28.42959 | -81.51875 | 14897 ft | 358 kts | 250° |
| 2026-04-23 00:04 | 28.42023 | -81.54485 | 15915 ft | 361 kts | 249° |
| 2026-04-23 00:04 | 28.41077 | -81.57120 | 16890 ft | 364 kts | 250° |
| 2026-04-23 00:04 | 28.40124 | -81.59769 | 17821 ft | 367 kts | 250° |
| 2026-04-23 00:05 | 28.39156 | -81.62463 | 18726 ft | 371 kts | 250° |
| 2026-04-23 00:05 | 28.38173 | -81.65193 | 19608 ft | 373 kts | 250° |
| 2026-04-23 00:05 | 28.37191 | -81.67924 | 20422 ft | 377 kts | 250° |
| 2026-04-23 00:05 | 28.36201 | -81.70673 | 21175 ft | 381 kts | 250° |
| 2026-04-23 00:06 | 28.35193 | -81.73473 | 21942 ft | 384 kts | 250° |
| 2026-04-23 00:06 | 28.34190 | -81.76259 | 22670 ft | 386 kts | 250° |
| 2026-04-23 00:06 | 28.33168 | -81.79092 | 23367 ft | 390 kts | 250° |
| 2026-04-23 00:06 | 28.32137 | -81.81950 | 24063 ft | 393 kts | 250° |
| 2026-04-23 00:07 | 28.31103 | -81.84815 | 24717 ft | 396 kts | 250° |
| 2026-04-23 00:07 | 28.30063 | -81.87693 | 25341 ft | 399 kts | 251° |
| 2026-04-23 00:07 | 28.29178 | -81.90695 | 25983 ft | 398 kts | 259° |
| 2026-04-23 00:07 | 28.28598 | -81.93751 | 26592 ft | 399 kts | 260° |
| 2026-04-23 00:08 | 28.28018 | -81.96836 | 27174 ft | 401 kts | 260° |
| 2026-04-23 00:08 | 28.27433 | -81.99927 | 27725 ft | 404 kts | 260° |
| 2026-04-23 00:08 | 28.26847 | -82.03018 | 28224 ft | 406 kts | 260° |
| 2026-04-23 00:08 | 28.26247 | -82.06177 | 28709 ft | 408 kts | 260° |
| 2026-04-23 00:09 | 28.25649 | -82.09319 | 29168 ft | 410 kts | 260° |
| 2026-04-23 00:09 | 28.25046 | -82.12480 | 29602 ft | 412 kts | 260° |
| 2026-04-23 00:09 | 28.24441 | -82.15649 | 30001 ft | 414 kts | 260° |
| 2026-04-23 00:09 | 28.23829 | -82.18844 | 30365 ft | 416 kts | 260° |
| 2026-04-23 00:10 | 28.23214 | -82.22056 | 30702 ft | 418 kts | 260° |
| 2026-04-23 00:10 | 28.22592 | -82.25297 | 31025 ft | 419 kts | 260° |
| 2026-04-23 00:10 | 28.21970 | -82.28529 | 31307 ft | 421 kts | 260° |
| 2026-04-23 00:10 | 28.21346 | -82.31770 | 31561 ft | 422 kts | 259° |
| 2026-04-23 00:11 | 28.20709 | -82.35072 | 31817 ft | 424 kts | 259° |
| 2026-04-23 00:11 | 28.20077 | -82.38343 | 32044 ft | 425 kts | 260° |
| 2026-04-23 00:11 | 28.19437 | -82.41653 | 32261 ft | 426 kts | 260° |
| 2026-04-23 00:11 | 28.18798 | -82.44948 | 32532 ft | 425 kts | 259° |
| 2026-04-23 00:12 | 28.18165 | -82.48206 | 33216 ft | 415 kts | 259° |
| 2026-04-23 00:12 | 28.17546 | -82.51389 | 33827 ft | 408 kts | 260° |
| 2026-04-23 00:12 | 28.16938 | -82.54511 | 34336 ft | 404 kts | 259° |
| 2026-04-23 00:12 | 28.16332 | -82.57618 | 34746 ft | 402 kts | 260° |
| 2026-04-23 00:13 | 28.15731 | -82.60697 | 35114 ft | 400 kts | 260° |
| 2026-04-23 00:13 | 28.15126 | -82.63797 | 35458 ft | 399 kts | 259° |
| 2026-04-23 00:13 | 28.14525 | -82.66869 | 35751 ft | 399 kts | 259° |
| 2026-04-23 00:13 | 28.13917 | -82.69974 | 36035 ft | 399 kts | 259° |
| 2026-04-23 00:14 | 28.13312 | -82.73059 | 36323 ft | 399 kts | 259° |
| 2026-04-23 00:14 | 28.12711 | -82.76121 | 36586 ft | 400 kts | 259° |
| 2026-04-23 00:14 | 28.12109 | -82.79184 | 36856 ft | 399 kts | 259° |
| 2026-04-23 00:14 | 28.11503 | -82.82264 | 37129 ft | 399 kts | 259° |
| 2026-04-23 00:15 | 28.10900 | -82.85323 | 37361 ft | 399 kts | 259° |
| 2026-04-23 00:15 | 28.10297 | -82.88380 | 37621 ft | 399 kts | 259° |
| 2026-04-23 00:15 | 28.09706 | -82.91470 | 37865 ft | 398 kts | 260° |
| 2026-04-23 00:15 | 28.09133 | -82.94521 | 38227 ft | 394 kts | 260° |
| 2026-04-23 00:16 | 28.08567 | -82.97530 | 38725 ft | 388 kts | 260° |
| 2026-04-23 00:16 | 28.08010 | -83.00480 | 39177 ft | 383 kts | 260° |
| 2026-04-23 00:16 | 28.07453 | -83.03434 | 39537 ft | 380 kts | 260° |
| 2026-04-23 00:16 | 28.06901 | -83.06355 | 39778 ft | 379 kts | 260° |
| 2026-04-23 00:17 | 28.06355 | -83.09247 | 39964 ft | 380 kts | 260° |
| 2026-04-23 00:17 | 28.05797 | -83.12193 | 40093 ft | 381 kts | 260° |
| 2026-04-23 00:17 | 28.05242 | -83.15121 | 40160 ft | 383 kts | 260° |
| 2026-04-23 00:18 | 28.04122 | -83.21023 | 40148 ft | 386 kts | 260° |
| 2026-04-23 00:18 | 28.02991 | -83.26960 | 40149 ft | 385 kts | 260° |
| 2026-04-23 00:19 | 28.01866 | -83.32853 | 40145 ft | 384 kts | 260° |
| 2026-04-23 00:19 | 28.00732 | -83.38778 | 40147 ft | 383 kts | 260° |
| 2026-04-23 00:20 | 27.99867 | -83.44705 | 40147 ft | 382 kts | 267° |
| 2026-04-23 00:20 | 27.99540 | -83.50710 | 40142 ft | 382 kts | 268° |
| 2026-04-23 00:21 | 27.99203 | -83.56682 | 40152 ft | 382 kts | 268° |
| 2026-04-23 00:21 | 27.98860 | -83.62683 | 40134 ft | 382 kts | 267° |
| 2026-04-23 00:22 | 27.98512 | -83.68684 | 40136 ft | 383 kts | 267° |
| 2026-04-23 00:22 | 27.98159 | -83.74723 | 40132 ft | 383 kts | 266° |
| 2026-04-23 00:23 | 27.97805 | -83.80719 | 40131 ft | 383 kts | 267° |
| 2026-04-23 00:23 | 27.97445 | -83.86739 | 40132 ft | 383 kts | 267° |
| 2026-04-23 00:24 | 27.97085 | -83.92726 | 40133 ft | 384 kts | 267° |
| 2026-04-23 00:24 | 27.96719 | -83.98758 | 40133 ft | 384 kts | 267° |
| 2026-04-23 00:25 | 27.96351 | -84.04776 | 40133 ft | 384 kts | 267° |
| 2026-04-23 00:25 | 27.95981 | -84.10771 | 40137 ft | 384 kts | 267° |
| 2026-04-23 00:26 | 27.95606 | -84.16800 | 40130 ft | 384 kts | 267° |
| 2026-04-23 00:26 | 27.95231 | -84.22801 | 40133 ft | 384 kts | 267° |
| 2026-04-23 00:27 | 27.94852 | -84.28820 | 40133 ft | 384 kts | 267° |
| 2026-04-23 00:27 | 27.94468 | -84.34860 | 40134 ft | 384 kts | 267° |
| 2026-04-23 00:28 | 27.94085 | -84.40860 | 40130 ft | 384 kts | 267° |
| 2026-04-23 00:28 | 27.93698 | -84.46874 | 40133 ft | 384 kts | 267° |
| 2026-04-23 00:29 | 27.93307 | -84.52891 | 40130 ft | 384 kts | 267° |
| 2026-04-23 00:29 | 27.92914 | -84.58927 | 40133 ft | 384 kts | 267° |